createdAt,value
2023-05-03T00:00:33.739Z,1021.99
2023-05-03T00:01:33.753Z,1022.00
2023-05-03T00:02:33.833Z,1022.01
2023-05-03T00:03:33.758Z,1022.01
2023-05-03T00:04:33.721Z,1022.02
2023-05-03T00:05:33.750Z,1022.00
2023-05-03T00:06:34.006Z,1022.01
2023-05-03T00:07:33.654Z,1022.01
2023-05-03T00:08:33.595Z,1022.01
2023-05-03T00:09:33.615Z,1022.02
2023-05-03T00:10:33.598Z,1022.02
2023-05-03T00:11:33.564Z,1022.03
2023-05-03T00:12:33.564Z,1022.03
2023-05-03T00:13:33.560Z,1022.04
2023-05-03T00:14:33.532Z,1022.03
2023-05-03T00:15:33.539Z,1022.05
2023-05-03T00:16:33.568Z,1022.05
2023-05-03T00:17:33.576Z,1022.07
2023-05-03T00:18:33.480Z,1022.08
2023-05-03T00:19:33.519Z,1022.08
2023-05-03T00:20:33.476Z,1022.09
2023-05-03T00:21:33.501Z,1022.09
2023-05-03T00:22:33.463Z,1022.09
2023-05-03T00:23:33.447Z,1022.07
2023-05-03T00:24:33.434Z,1022.07
2023-05-03T00:25:33.445Z,1022.07
2023-05-03T00:26:33.406Z,1022.04
2023-05-03T00:27:33.423Z,1022.02
2023-05-03T00:28:33.386Z,1022.04
2023-05-03T00:29:33.383Z,1022.02
2023-05-03T00:30:33.380Z,1022.05
2023-05-03T00:31:33.429Z,1022.05
2023-05-03T00:32:33.437Z,1022.06
2023-05-03T00:33:33.345Z,1022.08
2023-05-03T00:34:33.338Z,1022.07
2023-05-03T00:35:33.348Z,1022.06
2023-05-03T00:36:34.321Z,1022.05
2023-05-03T00:37:33.323Z,1022.05
2023-05-03T00:38:33.295Z,1022.06
2023-05-03T00:39:33.287Z,1022.05
2023-05-03T00:40:33.292Z,1022.07
2023-05-03T00:41:33.265Z,1022.05
2023-05-03T00:42:33.254Z,1022.04
2023-05-03T00:43:33.233Z,1022.04
2023-05-03T00:44:33.230Z,1022.04
2023-05-03T00:45:33.240Z,1022.06
2023-05-03T00:46:33.273Z,1022.06
2023-05-03T00:47:33.242Z,1022.07
2023-05-03T00:48:33.181Z,1022.08
2023-05-03T00:49:33.217Z,1022.09
2023-05-03T00:50:33.283Z,1022.10
2023-05-03T00:51:33.153Z,1022.11
2023-05-03T00:52:33.148Z,1022.11
2023-05-03T00:53:33.137Z,1022.10
2023-05-03T00:54:33.152Z,1022.10
2023-05-03T00:55:33.148Z,1022.09
2023-05-03T00:56:44.049Z,1022.08
2023-05-03T00:57:33.085Z,1022.07
2023-05-03T00:58:33.132Z,1022.06
2023-05-03T00:59:33.068Z,1022.05
2023-05-03T01:00:33.148Z,1022.05
2023-05-03T01:01:33.099Z,1022.03
2023-05-03T01:02:33.122Z,1022.04
2023-05-03T01:03:33.116Z,1022.04
2023-05-03T01:04:33.034Z,1022.05
2023-05-03T01:05:33.024Z,1022.06
2023-05-03T01:06:33.108Z,1022.07
2023-05-03T01:07:32.988Z,1022.08
2023-05-03T01:08:32.972Z,1022.07
2023-05-03T01:09:32.981Z,1022.06
2023-05-03T01:10:32.979Z,1022.06
2023-05-03T01:11:32.948Z,1022.05
2023-05-03T01:12:32.975Z,1022.03
2023-05-03T01:13:32.921Z,1022.01
2023-05-03T01:14:32.910Z,1022.01
2023-05-03T01:15:32.962Z,1022.01
2023-05-03T01:16:32.953Z,1022.03
2023-05-03T01:17:32.948Z,1022.05
2023-05-03T01:18:32.874Z,1022.06
2023-05-03T01:19:32.860Z,1022.07
2023-05-03T01:20:32.865Z,1022.07
2023-05-03T01:21:32.836Z,1022.07
2023-05-03T01:22:32.839Z,1022.08
2023-05-03T01:23:32.835Z,1022.08
2023-05-03T01:24:32.805Z,1022.09
2023-05-03T01:25:32.923Z,1022.07
2023-05-03T01:26:32.791Z,1022.08
2023-05-03T01:27:32.798Z,1022.09
2023-05-03T01:28:32.780Z,1022.08
2023-05-03T01:29:32.759Z,1022.09
2023-05-03T01:30:32.790Z,1022.11
2023-05-03T01:31:32.843Z,1022.10
2023-05-03T01:32:32.761Z,1022.11
2023-05-03T01:33:32.759Z,1022.10
2023-05-03T01:34:32.734Z,1022.11
2023-05-03T01:35:32.744Z,1022.13
2023-05-03T01:36:32.680Z,1022.13
2023-05-03T01:37:32.677Z,1022.14
2023-05-03T01:38:32.707Z,1022.15
2023-05-03T01:39:32.668Z,1022.14
2023-05-03T01:40:32.678Z,1022.13
2023-05-03T01:41:32.641Z,1022.12
2023-05-03T01:42:32.620Z,1022.12
2023-05-03T01:43:32.610Z,1022.11
2023-05-03T01:44:32.597Z,1022.11
2023-05-03T01:45:32.632Z,1022.11
2023-05-03T01:46:32.713Z,1022.10
2023-05-03T01:47:32.589Z,1022.09
2023-05-03T01:48:32.560Z,1022.10
2023-05-03T01:49:32.553Z,1022.10
2023-05-03T01:50:32.573Z,1022.11
2023-05-03T01:51:32.546Z,1022.11
2023-05-03T01:52:32.541Z,1022.10
2023-05-03T01:53:32.529Z,1022.11
2023-05-03T01:54:32.505Z,1022.10
2023-05-03T01:55:32.512Z,1022.07
2023-05-03T01:56:32.523Z,1022.09
2023-05-03T01:57:32.474Z,1022.10
2023-05-03T01:58:32.472Z,1022.10
2023-05-03T01:59:32.482Z,1022.12
2023-05-03T02:00:32.449Z,1022.11
2023-05-03T02:01:32.449Z,1022.10
2023-05-03T02:02:32.451Z,1022.11
2023-05-03T02:03:32.424Z,1022.12
2023-05-03T02:04:32.483Z,1022.14
2023-05-03T02:05:32.425Z,1022.13
2023-05-03T02:06:32.392Z,1022.15
2023-05-03T02:07:32.365Z,1022.14
2023-05-03T02:08:32.357Z,1022.16
2023-05-03T02:09:32.382Z,1022.18
2023-05-03T02:10:32.348Z,1022.18
2023-05-03T02:11:32.333Z,1022.20
2023-05-03T02:12:32.311Z,1022.19
2023-05-03T02:13:32.300Z,1022.19
2023-05-03T02:14:32.294Z,1022.20
2023-05-03T02:15:32.314Z,1022.17
2023-05-03T02:16:32.318Z,1022.17
2023-05-03T02:17:32.287Z,1022.20
2023-05-03T02:18:32.243Z,1022.16
2023-05-03T02:19:32.241Z,1022.18
2023-05-03T02:20:32.250Z,1022.19
2023-05-03T02:21:32.230Z,1022.20
2023-05-03T02:22:32.202Z,1022.21
2023-05-03T02:23:32.245Z,1022.21
2023-05-03T02:24:32.197Z,1022.22
2023-05-03T02:25:32.242Z,1022.22
2023-05-03T02:26:32.175Z,1022.23
2023-05-03T02:27:32.190Z,1022.24
2023-05-03T02:28:32.155Z,1022.23
2023-05-03T02:29:32.140Z,1022.24
2023-05-03T02:30:32.162Z,1022.27
2023-05-03T02:31:32.172Z,1022.28
2023-05-03T02:32:32.133Z,1022.30
2023-05-03T02:33:32.118Z,1022.30
2023-05-03T02:34:32.130Z,1022.32
2023-05-03T02:35:32.119Z,1022.33
2023-05-03T02:36:32.077Z,1022.31
2023-05-03T02:37:32.055Z,1022.35
2023-05-03T02:38:32.069Z,1022.34
2023-05-03T02:39:32.075Z,1022.35
2023-05-03T02:40:32.047Z,1022.37
2023-05-03T02:41:32.013Z,1022.37
2023-05-03T02:42:32.062Z,1022.37
2023-05-03T02:43:32.022Z,1022.38
2023-05-03T02:44:33.622Z,1022.38
2023-05-03T02:45:32.033Z,1022.38
2023-05-03T02:46:32.000Z,1022.41
2023-05-03T02:47:31.987Z,1022.40
2023-05-03T02:48:31.976Z,1022.39
2023-05-03T02:49:31.970Z,1022.41
2023-05-03T02:50:31.948Z,1022.40
2023-05-03T02:51:31.926Z,1022.40
2023-05-03T02:52:31.907Z,1022.41
2023-05-03T02:53:31.902Z,1022.43
2023-05-03T02:54:31.900Z,1022.44
2023-05-03T02:55:31.913Z,1022.45
2023-05-03T02:56:31.859Z,1022.46
2023-05-03T02:57:31.886Z,1022.45
2023-05-03T02:58:31.814Z,1022.44
2023-05-03T02:59:31.824Z,1022.45
2023-05-03T03:00:31.853Z,1022.47
2023-05-03T03:01:31.835Z,1022.48
2023-05-03T03:02:31.878Z,1022.49
2023-05-03T03:03:31.934Z,1022.51
2023-05-03T03:04:31.780Z,1022.53
2023-05-03T03:05:31.776Z,1022.54
2023-05-03T03:06:31.777Z,1022.54
2023-05-03T03:07:31.741Z,1022.53
2023-05-03T03:08:31.776Z,1022.53
2023-05-03T03:09:31.667Z,1022.51
2023-05-03T03:10:31.692Z,1022.51
2023-05-03T03:11:31.671Z,1022.51
2023-05-03T03:12:31.633Z,1022.51
2023-05-03T03:13:31.656Z,1022.52
2023-05-03T03:14:31.673Z,1022.51
2023-05-03T03:15:31.619Z,1022.51
2023-05-03T03:16:31.770Z,1022.52
2023-05-03T03:17:31.633Z,1022.52
2023-05-03T03:18:31.587Z,1022.53
2023-05-03T03:19:31.581Z,1022.55
2023-05-03T03:20:31.552Z,1022.54
2023-05-03T03:21:31.554Z,1022.55
2023-05-03T03:22:31.541Z,1022.56
2023-05-03T03:23:31.578Z,1022.57
2023-05-03T03:24:31.540Z,1022.58
2023-05-03T03:25:31.499Z,1022.59
2023-05-03T03:26:31.515Z,1022.61
2023-05-03T03:27:31.492Z,1022.63
2023-05-03T03:28:31.507Z,1022.66
2023-05-03T03:29:31.472Z,1022.67
2023-05-03T03:30:31.476Z,1022.68
2023-05-03T03:31:31.495Z,1022.66
2023-05-03T03:32:31.423Z,1022.67
2023-05-03T03:33:31.471Z,1022.67
2023-05-03T03:34:31.417Z,1022.67
2023-05-03T03:35:31.406Z,1022.68
2023-05-03T03:36:31.412Z,1022.68
2023-05-03T03:37:31.380Z,1022.70
2023-05-03T03:38:31.360Z,1022.70
2023-05-03T03:39:31.370Z,1022.71
2023-05-03T03:40:31.350Z,1022.72
2023-05-03T03:41:31.351Z,1022.73
2023-05-03T03:42:31.321Z,1022.74
2023-05-03T03:43:31.333Z,1022.75
2023-05-03T03:44:31.376Z,1022.77
2023-05-03T03:45:31.314Z,1022.79
2023-05-03T03:46:31.354Z,1022.80
2023-05-03T03:47:31.331Z,1022.82
2023-05-03T03:48:31.254Z,1022.82
2023-05-03T03:49:31.275Z,1022.83
2023-05-03T03:50:31.264Z,1022.83
2023-05-03T03:51:31.284Z,1022.82
2023-05-03T03:52:31.230Z,1022.84
2023-05-03T03:53:31.231Z,1022.83
2023-05-03T03:54:31.212Z,1022.84
2023-05-03T03:55:31.220Z,1022.83
2023-05-03T03:56:31.187Z,1022.84
2023-05-03T03:57:31.166Z,1022.85
2023-05-03T03:58:31.147Z,1022.86
2023-05-03T03:59:31.187Z,1022.87
2023-05-03T04:00:31.837Z,1022.87
2023-05-03T04:01:31.193Z,1022.86
2023-05-03T04:02:31.224Z,1022.87
2023-05-03T04:03:31.252Z,1022.89
2023-05-03T04:04:31.192Z,1022.90
2023-05-03T04:05:31.100Z,1022.92
2023-05-03T04:06:31.091Z,1022.94
2023-05-03T04:07:31.095Z,1022.95
2023-05-03T04:08:31.059Z,1022.97
2023-05-03T04:09:31.045Z,1022.99
2023-05-03T04:10:31.041Z,1023.00
2023-05-03T04:11:31.010Z,1023.02
2023-05-03T04:12:31.055Z,1023.02
2023-05-03T04:13:31.009Z,1023.03
2023-05-03T04:14:31.083Z,1023.04
2023-05-03T04:15:30.993Z,1023.07
2023-05-03T04:16:30.972Z,1023.07
2023-05-03T04:17:31.033Z,1023.09
2023-05-03T04:18:30.955Z,1023.11
2023-05-03T04:19:30.929Z,1023.12
2023-05-03T04:20:30.928Z,1023.13
2023-05-03T04:21:30.937Z,1023.15
2023-05-03T04:22:30.897Z,1023.16
2023-05-03T04:23:30.940Z,1023.16
2023-05-03T04:24:30.889Z,1023.16
2023-05-03T04:25:30.901Z,1023.17
2023-05-03T04:26:32.254Z,1023.17
2023-05-03T04:27:30.854Z,1023.17
2023-05-03T04:28:30.849Z,1023.17
2023-05-03T04:29:30.851Z,1023.18
2023-05-03T04:30:30.820Z,1023.19
2023-05-03T04:31:30.853Z,1023.20
2023-05-03T04:32:30.905Z,1023.22
2023-05-03T04:33:30.805Z,1023.23
2023-05-03T04:34:30.785Z,1023.24
2023-05-03T04:35:30.762Z,1023.26
2023-05-03T04:36:30.765Z,1023.26
2023-05-03T04:37:30.753Z,1023.26
2023-05-03T04:38:30.736Z,1023.28
2023-05-03T04:39:30.751Z,1023.28
2023-05-03T04:40:30.782Z,1023.29
2023-05-03T04:41:30.958Z,1023.29
2023-05-03T04:42:32.401Z,1023.30
2023-05-03T04:43:32.770Z,1023.31
2023-05-03T04:44:30.741Z,1023.31
2023-05-03T04:45:30.681Z,1023.32
2023-05-03T04:46:30.724Z,1023.33
2023-05-03T04:47:30.709Z,1023.33
2023-05-03T04:48:30.676Z,1023.35
2023-05-03T04:49:30.690Z,1023.35
2023-05-03T04:50:30.618Z,1023.36
2023-05-03T04:51:30.612Z,1023.36
2023-05-03T04:52:30.678Z,1023.36
2023-05-03T04:53:30.615Z,1023.36
2023-05-03T04:54:30.595Z,1023.37
2023-05-03T04:55:30.567Z,1023.37
2023-05-03T04:56:30.556Z,1023.39
2023-05-03T04:57:30.565Z,1023.40
2023-05-03T04:58:30.534Z,1023.42
2023-05-03T04:59:30.544Z,1023.43
2023-05-03T05:00:30.507Z,1023.43
2023-05-03T05:01:30.596Z,1023.46
2023-05-03T05:02:30.639Z,1023.46
2023-05-03T05:03:30.528Z,1023.47
2023-05-03T05:04:30.486Z,1023.47
2023-05-03T05:05:30.457Z,1023.46
2023-05-03T05:06:30.476Z,1023.48
2023-05-03T05:07:30.425Z,1023.48
2023-05-03T05:08:30.456Z,1023.50
2023-05-03T05:09:30.451Z,1023.49
2023-05-03T05:10:30.405Z,1023.49
2023-05-03T05:11:30.471Z,1023.48
2023-05-03T05:12:30.393Z,1023.46
2023-05-03T05:13:30.374Z,1023.45
2023-05-03T05:14:32.471Z,1023.42
2023-05-03T05:15:30.434Z,1023.43
2023-05-03T05:16:30.462Z,1023.45
2023-05-03T05:17:30.439Z,1023.45
2023-05-03T05:18:30.373Z,1023.47
2023-05-03T05:19:30.337Z,1023.47
2023-05-03T05:20:30.318Z,1023.46
2023-05-03T05:21:30.397Z,1023.48
2023-05-03T05:22:30.291Z,1023.49
2023-05-03T05:23:31.395Z,1023.50
2023-05-03T05:24:30.312Z,1023.50
2023-05-03T05:25:30.242Z,1023.51
2023-05-03T05:26:30.317Z,1023.52
2023-05-03T05:27:30.259Z,1023.53
2023-05-03T05:28:30.231Z,1023.53
2023-05-03T05:29:30.336Z,1023.54
2023-05-03T05:30:30.216Z,1023.55
2023-05-03T05:31:30.288Z,1023.55
2023-05-03T05:32:30.213Z,1023.55
2023-05-03T05:33:31.096Z,1023.55
2023-05-03T05:34:36.359Z,1023.56
2023-05-03T05:35:30.141Z,1023.57
2023-05-03T05:36:30.148Z,1023.59
2023-05-03T05:37:30.142Z,1023.61
2023-05-03T05:38:30.133Z,1023.62
2023-05-03T05:39:30.142Z,1023.62
2023-05-03T05:40:30.119Z,1023.64
2023-05-03T05:41:30.074Z,1023.65
2023-05-03T05:42:30.114Z,1023.65
2023-05-03T05:43:30.067Z,1023.65
2023-05-03T05:44:30.074Z,1023.65
2023-05-03T05:45:30.044Z,1023.66
2023-05-03T05:46:30.115Z,1023.67
2023-05-03T05:47:30.101Z,1023.68
2023-05-03T05:48:30.023Z,1023.70
2023-05-03T05:49:30.084Z,1023.71
2023-05-03T05:50:29.997Z,1023.72
2023-05-03T05:51:29.988Z,1023.72
2023-05-03T05:52:30.001Z,1023.73
2023-05-03T05:53:29.954Z,1023.74
2023-05-03T05:54:30.613Z,1023.75
2023-05-03T05:55:29.949Z,1023.76
2023-05-03T05:56:29.970Z,1023.77
2023-05-03T05:57:29.926Z,1023.79
2023-05-03T05:58:29.920Z,1023.80
2023-05-03T05:59:29.926Z,1023.79
2023-05-03T06:00:29.904Z,1023.81
2023-05-03T06:01:29.899Z,1023.81
2023-05-03T06:02:30.006Z,1023.81
2023-05-03T06:03:30.091Z,1023.83
2023-05-03T06:04:29.916Z,1023.83
2023-05-03T06:05:29.929Z,1023.82
2023-05-03T06:06:30.037Z,1023.82
2023-05-03T06:07:30.136Z,1023.82
2023-05-03T06:08:30.188Z,1023.82
2023-05-03T06:09:29.883Z,1023.82
2023-05-03T06:10:31.818Z,1023.82
2023-05-03T06:11:30.824Z,1023.83
2023-05-03T06:12:29.995Z,1023.83
2023-05-03T06:13:30.146Z,1023.83
2023-05-03T06:14:29.827Z,1023.83
2023-05-03T06:15:30.748Z,1023.85
2023-05-03T06:16:29.924Z,1023.86
2023-05-03T06:17:29.897Z,1023.88
2023-05-03T06:18:29.854Z,1023.88
2023-05-03T06:19:29.780Z,1023.89
2023-05-03T06:20:30.278Z,1023.89
2023-05-03T06:21:30.049Z,1023.91
2023-05-03T06:22:30.143Z,1023.91
2023-05-03T06:23:31.218Z,1023.91
2023-05-03T06:24:29.739Z,1023.93
2023-05-03T06:25:30.563Z,1023.93
2023-05-03T06:26:29.892Z,1023.95
2023-05-03T06:27:29.637Z,1023.95
2023-05-03T06:28:29.763Z,1023.95
2023-05-03T06:29:29.680Z,1023.97
2023-05-03T06:30:29.619Z,1023.96
2023-05-03T06:31:29.689Z,1023.96
2023-05-03T06:32:29.648Z,1023.96
2023-05-03T06:33:30.006Z,1023.94
2023-05-03T06:34:29.742Z,1023.95
2023-05-03T06:35:29.725Z,1023.94
2023-05-03T06:36:30.399Z,1023.92
2023-05-03T06:37:29.661Z,1023.94
2023-05-03T06:38:31.186Z,1023.93
2023-05-03T06:39:29.566Z,1023.94
2023-05-03T06:40:29.510Z,1023.95
2023-05-03T06:41:29.487Z,1023.96
2023-05-03T06:42:29.495Z,1023.96
2023-05-03T06:43:29.529Z,1023.95
2023-05-03T06:44:29.466Z,1023.94
2023-05-03T06:45:29.479Z,1023.94
2023-05-03T06:46:29.490Z,1023.93
2023-05-03T06:47:29.583Z,1023.94
2023-05-03T06:48:31.859Z,1023.93
2023-05-03T06:49:29.489Z,1023.92
2023-05-03T06:50:29.476Z,1023.91
2023-05-03T06:51:29.458Z,1023.91
2023-05-03T06:52:29.450Z,1023.92
2023-05-03T06:53:29.385Z,1023.95
2023-05-03T06:54:29.364Z,1023.96
2023-05-03T06:55:29.342Z,1023.97
2023-05-03T06:56:29.360Z,1023.96
2023-05-03T06:57:29.352Z,1023.97
2023-05-03T06:58:29.333Z,1023.98
2023-05-03T06:59:29.366Z,1023.98
2023-05-03T07:00:29.303Z,1023.97
2023-05-03T07:01:29.292Z,1023.97
2023-05-03T07:02:29.351Z,1023.97
2023-05-03T07:03:29.435Z,1023.98
2023-05-03T07:04:29.267Z,1023.96
2023-05-03T07:05:29.219Z,1023.96
2023-05-03T07:06:30.705Z,1023.96
2023-05-03T07:07:29.234Z,1023.95
2023-05-03T07:08:29.241Z,1023.98
2023-05-03T07:09:42.146Z,1023.99
2023-05-03T07:10:30.917Z,1024.00
2023-05-03T07:11:29.172Z,1024.03
2023-05-03T07:12:29.211Z,1024.03
2023-05-03T07:13:29.148Z,1024.01
2023-05-03T07:14:29.196Z,1024.01
2023-05-03T07:15:29.124Z,1024.03
2023-05-03T07:16:29.132Z,1024.00
2023-05-03T07:17:29.184Z,1024.00
2023-05-03T07:18:29.131Z,1024.01
2023-05-03T07:19:29.082Z,1024.01
2023-05-03T07:20:29.115Z,1024.00
2023-05-03T07:21:29.075Z,1023.99
2023-05-03T07:22:29.052Z,1023.99
2023-05-03T07:23:29.060Z,1023.98
2023-05-03T07:24:29.090Z,1023.99
2023-05-03T07:25:29.076Z,1023.99
2023-05-03T07:26:29.026Z,1023.98
2023-05-03T07:27:28.986Z,1023.96
2023-05-03T07:28:29.008Z,1023.97
2023-05-03T07:29:28.959Z,1023.98
2023-05-03T07:30:28.969Z,1024.01
2023-05-03T07:31:28.988Z,1024.03
2023-05-03T07:32:29.064Z,1024.04
2023-05-03T07:33:29.042Z,1024.05
2023-05-03T07:34:28.923Z,1024.04
2023-05-03T07:35:28.908Z,1024.02
2023-05-03T07:36:28.893Z,1024.00
2023-05-03T07:37:28.887Z,1024.00
2023-05-03T07:38:28.896Z,1023.99
2023-05-03T07:39:28.856Z,1023.95
2023-05-03T07:40:28.868Z,1023.93
2023-05-03T07:41:29.008Z,1023.96
2023-05-03T07:42:28.836Z,1023.97
2023-05-03T07:43:28.863Z,1023.95
2023-05-03T07:44:28.847Z,1023.93
2023-05-03T07:45:28.874Z,1023.91
2023-05-03T07:46:28.807Z,1023.91
2023-05-03T07:47:28.870Z,1023.93
2023-05-03T07:48:28.779Z,1023.93
2023-05-03T07:49:28.760Z,1023.89
2023-05-03T07:50:28.762Z,1023.88
2023-05-03T07:51:28.733Z,1023.86
2023-05-03T07:52:28.753Z,1023.87
2023-05-03T07:53:28.747Z,1023.88
2023-05-03T07:54:28.705Z,1023.87
2023-05-03T07:55:28.719Z,1023.87
2023-05-03T07:56:28.735Z,1023.83
2023-05-03T07:57:28.714Z,1023.81
2023-05-03T07:58:39.532Z,1023.82
2023-05-03T07:59:28.686Z,1023.82
2023-05-03T08:00:28.660Z,1023.82
2023-05-03T08:01:28.643Z,1023.83
2023-05-03T08:02:28.898Z,1023.84
2023-05-03T08:03:28.914Z,1023.82
2023-05-03T08:04:28.724Z,1023.79
2023-05-03T08:05:28.595Z,1023.79
2023-05-03T08:06:28.637Z,1023.78
2023-05-03T08:07:28.661Z,1023.77
2023-05-03T08:08:28.605Z,1023.73
2023-05-03T08:09:28.578Z,1023.72
2023-05-03T08:10:28.547Z,1023.70
2023-05-03T08:11:28.576Z,1023.73
2023-05-03T08:12:28.535Z,1023.73
2023-05-03T08:13:28.505Z,1023.76
2023-05-03T08:14:28.521Z,1023.70
2023-05-03T08:15:28.532Z,1023.69
2023-05-03T08:16:28.589Z,1023.67
2023-05-03T08:17:28.570Z,1023.67
2023-05-03T08:18:28.463Z,1023.68
2023-05-03T08:19:28.468Z,1023.69
2023-05-03T08:20:28.488Z,1023.69
2023-05-03T08:21:28.434Z,1023.67
2023-05-03T08:22:28.460Z,1023.63
2023-05-03T08:23:28.413Z,1023.61
2023-05-03T08:24:28.413Z,1023.59
2023-05-03T08:25:28.408Z,1023.60
2023-05-03T08:26:28.543Z,1023.66
2023-05-03T08:27:28.392Z,1023.67
2023-05-03T08:28:28.405Z,1023.65
2023-05-03T08:29:28.422Z,1023.64
2023-05-03T08:30:28.420Z,1023.62
2023-05-03T08:31:28.354Z,1023.63
2023-05-03T08:32:28.419Z,1023.61
2023-05-03T08:33:28.304Z,1023.64
2023-05-03T08:34:28.293Z,1023.65
2023-05-03T08:35:28.295Z,1023.67
2023-05-03T08:36:28.447Z,1023.64
2023-05-03T08:37:28.264Z,1023.66
2023-05-03T08:38:28.258Z,1023.64
2023-05-03T08:39:28.260Z,1023.64
2023-05-03T08:40:28.303Z,1023.64
2023-05-03T08:41:30.369Z,1023.66
2023-05-03T08:42:28.250Z,1023.66
2023-05-03T08:43:28.235Z,1023.65
2023-05-03T08:44:28.379Z,1023.66
2023-05-03T08:45:28.193Z,1023.70
2023-05-03T08:46:28.487Z,1023.70
2023-05-03T08:47:28.257Z,1023.73
2023-05-03T08:48:30.633Z,1023.71
2023-05-03T08:49:28.143Z,1023.72
2023-05-03T08:50:28.130Z,1023.71
2023-05-03T08:51:28.190Z,1023.71
2023-05-03T08:52:28.116Z,1023.77
2023-05-03T08:53:28.139Z,1023.81
2023-05-03T08:54:28.120Z,1023.83
2023-05-03T08:55:28.069Z,1023.82
2023-05-03T08:56:28.092Z,1023.84
2023-05-03T08:57:28.075Z,1023.87
2023-05-03T08:58:28.070Z,1023.89
2023-05-03T08:59:28.034Z,1023.89
2023-05-03T09:00:28.042Z,1023.87
2023-05-03T09:01:28.112Z,1023.84
2023-05-03T09:02:28.127Z,1023.85
2023-05-03T09:03:28.081Z,1023.84
2023-05-03T09:04:28.049Z,1023.83
2023-05-03T09:05:27.975Z,1023.85
2023-05-03T09:06:28.011Z,1023.86
2023-05-03T09:07:27.945Z,1023.88
2023-05-03T09:08:27.953Z,1023.87
2023-05-03T09:09:27.959Z,1023.88
2023-05-03T09:10:27.940Z,1023.88
2023-05-03T09:11:27.914Z,1023.88
2023-05-03T09:12:28.254Z,1023.89
2023-05-03T09:13:27.964Z,1023.91
2023-05-03T09:14:27.949Z,1023.90
2023-05-03T09:15:27.926Z,1023.88
2023-05-03T09:16:27.919Z,1023.85
2023-05-03T09:17:27.919Z,1023.83
2023-05-03T09:18:27.926Z,1023.80
2023-05-03T09:19:27.863Z,1023.77
2023-05-03T09:20:27.846Z,1023.77
2023-05-03T09:21:27.823Z,1023.76
2023-05-03T09:22:27.857Z,1023.76
2023-05-03T09:23:27.791Z,1023.80
2023-05-03T09:24:27.799Z,1023.81
2023-05-03T09:25:27.788Z,1023.81
2023-05-03T09:26:27.750Z,1023.80
2023-05-03T09:27:27.785Z,1023.80
2023-05-03T09:28:27.791Z,1023.79
2023-05-03T09:29:27.749Z,1023.79
2023-05-03T09:30:27.719Z,1023.80
2023-05-03T09:31:27.739Z,1023.79
2023-05-03T09:32:27.777Z,1023.83
2023-05-03T09:33:27.746Z,1023.81
2023-05-03T09:34:27.772Z,1023.79
2023-05-03T09:35:27.660Z,1023.80
2023-05-03T09:36:27.682Z,1023.82
2023-05-03T09:37:27.675Z,1023.81
2023-05-03T09:38:27.642Z,1023.82
2023-05-03T09:39:27.645Z,1023.81
2023-05-03T09:40:27.679Z,1023.83
2023-05-03T09:41:27.617Z,1023.81
2023-05-03T09:42:27.612Z,1023.78
2023-05-03T09:43:27.607Z,1023.80
2023-05-03T09:44:27.592Z,1023.83
2023-05-03T09:45:27.611Z,1023.86
2023-05-03T09:46:27.645Z,1023.85
2023-05-03T09:47:30.652Z,1023.86
2023-05-03T09:48:27.548Z,1023.86
2023-05-03T09:49:27.577Z,1023.85
2023-05-03T09:50:27.558Z,1023.84
2023-05-03T09:51:27.545Z,1023.83
2023-05-03T09:52:27.598Z,1023.83
2023-05-03T09:53:27.503Z,1023.84
2023-05-03T09:54:27.493Z,1023.84
2023-05-03T09:55:27.481Z,1023.82
2023-05-03T09:56:27.500Z,1023.82
2023-05-03T09:57:27.476Z,1023.79
2023-05-03T09:58:27.497Z,1023.80
2023-05-03T09:59:27.439Z,1023.78
2023-05-03T10:00:27.428Z,1023.79
2023-05-03T10:01:27.504Z,1023.81
2023-05-03T10:02:27.445Z,1023.82
2023-05-03T10:03:27.470Z,1023.82
2023-05-03T10:04:27.611Z,1023.82
2023-05-03T10:05:27.400Z,1023.82
2023-05-03T10:06:27.447Z,1023.81
2023-05-03T10:07:27.389Z,1023.79
2023-05-03T10:08:27.335Z,1023.76
2023-05-03T10:09:27.316Z,1023.75
2023-05-03T10:10:27.303Z,1023.77
2023-05-03T10:11:27.299Z,1023.79
2023-05-03T10:12:27.296Z,1023.78
2023-05-03T10:13:27.296Z,1023.78
2023-05-03T10:14:27.264Z,1023.74
2023-05-03T10:15:27.251Z,1023.73
2023-05-03T10:16:27.267Z,1023.72
2023-05-03T10:17:43.391Z,1023.72
2023-05-03T10:18:27.274Z,1023.72
2023-05-03T10:19:27.239Z,1023.71
2023-05-03T10:20:27.243Z,1023.73
2023-05-03T10:21:27.254Z,1023.71
2023-05-03T10:22:27.201Z,1023.72
2023-05-03T10:23:27.177Z,1023.70
2023-05-03T10:24:27.210Z,1023.70
2023-05-03T10:25:27.159Z,1023.72
2023-05-03T10:26:27.156Z,1023.74
2023-05-03T10:27:27.156Z,1023.75
2023-05-03T10:28:27.113Z,1023.72
2023-05-03T10:29:27.141Z,1023.70
2023-05-03T10:30:27.129Z,1023.66
2023-05-03T10:31:27.143Z,1023.64
2023-05-03T10:32:27.161Z,1023.61
2023-05-03T10:33:27.101Z,1023.59
2023-05-03T10:34:27.116Z,1023.60
2023-05-03T10:35:27.055Z,1023.60
2023-05-03T10:36:35.392Z,1023.61
2023-05-03T10:37:27.079Z,1023.64
2023-05-03T10:38:27.052Z,1023.67
2023-05-03T10:39:27.645Z,1023.68
2023-05-03T10:40:27.002Z,1023.69
2023-05-03T10:41:27.021Z,1023.66
2023-05-03T10:42:26.982Z,1023.61
2023-05-03T10:43:26.996Z,1023.58
2023-05-03T10:44:26.956Z,1023.59
2023-05-03T10:45:26.977Z,1023.60
2023-05-03T10:46:27.022Z,1023.63
2023-05-03T10:47:26.965Z,1023.66
2023-05-03T10:48:26.909Z,1023.66
2023-05-03T10:49:26.915Z,1023.68
2023-05-03T10:50:26.917Z,1023.65
2023-05-03T10:51:26.981Z,1023.64
2023-05-03T10:52:26.869Z,1023.60
2023-05-03T10:53:27.656Z,1023.58
2023-05-03T10:54:26.861Z,1023.54
2023-05-03T10:55:26.860Z,1023.57
2023-05-03T10:56:26.836Z,1023.59
2023-05-03T10:57:26.900Z,1023.59
2023-05-03T10:58:26.806Z,1023.59
2023-05-03T10:59:26.823Z,1023.59
2023-05-03T11:00:26.801Z,1023.56
2023-05-03T11:01:26.869Z,1023.52
2023-05-03T11:02:26.787Z,1023.49
2023-05-03T11:03:26.763Z,1023.47
2023-05-03T11:04:26.821Z,1023.50
2023-05-03T11:05:26.747Z,1023.48
2023-05-03T11:06:26.820Z,1023.51
2023-05-03T11:07:26.746Z,1023.49
2023-05-03T11:08:26.735Z,1023.53
2023-05-03T11:09:26.702Z,1023.51
2023-05-03T11:10:26.681Z,1023.48
2023-05-03T11:11:26.753Z,1023.50
2023-05-03T11:12:26.670Z,1023.47
2023-05-03T11:13:26.760Z,1023.44
2023-05-03T11:14:26.692Z,1023.39
2023-05-03T11:15:26.652Z,1023.41
2023-05-03T11:16:26.674Z,1023.41
2023-05-03T11:17:26.643Z,1023.42
2023-05-03T11:18:26.691Z,1023.42
2023-05-03T11:19:26.596Z,1023.40
2023-05-03T11:20:26.611Z,1023.39
2023-05-03T11:21:26.573Z,1023.39
2023-05-03T11:22:26.573Z,1023.38
2023-05-03T11:23:26.575Z,1023.36
2023-05-03T11:24:26.539Z,1023.35
2023-05-03T11:25:26.544Z,1023.38
2023-05-03T11:26:26.765Z,1023.41
2023-05-03T11:27:26.583Z,1023.36
2023-05-03T11:28:26.529Z,1023.37
2023-05-03T11:29:26.495Z,1023.34
2023-05-03T11:30:26.498Z,1023.33
2023-05-03T11:31:26.532Z,1023.29
2023-05-03T11:32:26.490Z,1023.32
2023-05-03T11:33:26.546Z,1023.34
2023-05-03T11:34:26.439Z,1023.32
2023-05-03T11:35:26.436Z,1023.30
2023-05-03T11:36:26.435Z,1023.31
2023-05-03T11:37:26.428Z,1023.29
2023-05-03T11:38:26.409Z,1023.26
2023-05-03T11:39:26.388Z,1023.25
2023-05-03T11:40:26.407Z,1023.26
2023-05-03T11:41:26.381Z,1023.26
2023-05-03T11:42:26.417Z,1023.25
2023-05-03T11:43:26.387Z,1023.23
2023-05-03T11:44:26.334Z,1023.21
2023-05-03T11:45:26.355Z,1023.15
2023-05-03T11:46:26.423Z,1023.16
2023-05-03T11:47:26.469Z,1023.17
2023-05-03T11:48:26.370Z,1023.16
2023-05-03T11:49:26.301Z,1023.16
2023-05-03T11:50:26.314Z,1023.16
2023-05-03T11:51:26.288Z,1023.14
2023-05-03T11:52:26.270Z,1023.13
2023-05-03T11:53:26.244Z,1023.12
2023-05-03T11:54:27.682Z,1023.12
2023-05-03T11:55:26.268Z,1023.11
2023-05-03T11:56:26.249Z,1023.09
2023-05-03T11:57:26.263Z,1023.07
2023-05-03T11:58:26.215Z,1023.07
2023-05-03T11:59:26.201Z,1023.08
2023-05-03T12:00:26.410Z,1023.07
2023-05-03T12:01:26.231Z,1023.10
2023-05-03T12:02:26.518Z,1023.14
2023-05-03T12:03:30.845Z,1023.15
2023-05-03T12:04:26.306Z,1023.17
2023-05-03T12:05:26.717Z,1023.17